Terminal Aerodrome Forecast
Issued by NWS Portland, OR

Home | Current Version | Previous Version | Text Only | Print | Product List | Glossary On
Versions: 1 2 3 4 5 6 7 8 9 10 11 12 13 14 15 16 17 18 19 20 21 22 23 24 25
000
FTUS46 KPQR 231732
TAFPDX
TAF
KPDX 231732Z 2318/2418 19011G22KT P6SM SCT017 BKN035 OVC050
      TEMPO 2318/2322 -RA BKN017 OVC035
     FM232200 18012G22KT P6SM -RA SCT020 BKN035 OVC050
     FM240100 18012G24KT P6SM -RA SCT015 BKN025 OVC035
     FM240800 19016G30KT 4SM RA BR BKN015 OVC030
     FM241500 22012G22KT P6SM -SHRA BKN025 BKN045=

USA.gov is the U.S. government's official web portal to all federal, state and local government web resources and services.